createdAt,value
2018-07-08T00:00:14.444Z,11.00
2018-07-08T00:05:18.463Z,9.60
2018-07-08T00:10:22.700Z,10.50
2018-07-08T00:15:26.419Z,10.83
2018-07-08T00:20:30.124Z,9.30
2018-07-08T00:25:33.907Z,9.60
2018-07-08T00:30:37.548Z,10.10
2018-07-08T00:35:43.364Z,10.53
2018-07-08T00:40:46.980Z,10.77
2018-07-08T00:45:51.207Z,10.70
2018-07-08T00:50:54.813Z,10.90
2018-07-08T00:55:58.527Z,10.00
2018-07-08T01:01:02.375Z,11.07
2018-07-08T01:06:06.316Z,10.80
2018-07-08T01:11:10.154Z,10.87
2018-07-08T01:16:13.813Z,10.73
2018-07-08T01:21:17.456Z,11.63
2018-07-08T01:26:21.548Z,10.37
2018-07-08T01:31:25.088Z,10.77
2018-07-08T01:36:28.845Z,10.77
2018-07-08T01:41:32.492Z,10.63
2018-07-08T01:46:35.953Z,11.07
2018-07-08T01:51:39.520Z,11.77
2018-07-08T01:56:42.753Z,11.63
2018-07-08T02:01:46.463Z,12.00
2018-07-08T02:06:49.806Z,11.27
2018-07-08T02:11:53.741Z,11.87
2018-07-08T02:16:57.744Z,11.63
2018-07-08T02:22:01.327Z,12.17
2018-07-08T02:27:05.199Z,12.23
2018-07-08T02:32:09.732Z,12.77
2018-07-08T02:37:13.335Z,13.20
2018-07-08T02:42:18.944Z,13.13
2018-07-08T02:47:23.582Z,12.73
2018-07-08T02:52:27.515Z,13.70
2018-07-08T02:57:31.084Z,13.27
2018-07-08T03:02:35.239Z,13.10
2018-07-08T03:07:38.996Z,12.63
2018-07-08T03:12:42.917Z,12.80
2018-07-08T03:17:46.463Z,13.70
2018-07-08T03:22:50.034Z,12.63
2018-07-08T03:27:53.587Z,13.47
2018-07-08T03:32:57.476Z,13.67
2018-07-08T03:38:01.484Z,12.63
2018-07-08T03:43:05.030Z,13.17
2018-07-08T03:48:09.492Z,13.50
2018-07-08T03:53:13.031Z,13.47
2018-07-08T03:58:16.597Z,13.40
2018-07-08T04:03:20.135Z,12.53
2018-07-08T04:08:23.728Z,14.83
2018-07-08T04:13:27.415Z,15.27
2018-07-08T04:18:33.804Z,13.93
2018-07-08T04:23:37.369Z,13.77
2018-07-08T04:28:42.787Z,15.00
2018-07-08T04:33:46.340Z,15.17
2018-07-08T04:38:49.879Z,14.50
2018-07-08T04:43:53.772Z,15.57
2018-07-08T04:48:57.389Z,14.30
2018-07-08T04:54:00.920Z,15.70
2018-07-08T04:59:05.311Z,16.33
2018-07-08T05:04:08.853Z,16.43
2018-07-08T05:09:12.459Z,15.03
2018-07-08T05:14:16.110Z,15.47
2018-07-08T05:19:19.651Z,16.20
2018-07-08T05:24:23.230Z,16.80
2018-07-08T05:29:26.879Z,16.87
2018-07-08T05:34:30.563Z,16.13
2018-07-08T05:39:34.245Z,17.00
2018-07-08T05:44:38.789Z,17.23
2018-07-08T05:49:42.498Z,17.83
2018-07-08T05:54:46.212Z,17.60
2018-07-08T05:59:49.768Z,16.80
2018-07-08T06:04:53.318Z,18.30
2018-07-08T06:09:56.848Z,17.77
2018-07-08T06:15:00.203Z,16.57
2018-07-08T06:20:04.035Z,15.83
2018-07-08T06:25:08.462Z,15.23
2018-07-08T06:30:12.152Z,13.67
2018-07-08T06:35:16.676Z,14.33
2018-07-08T06:40:20.271Z,14.53
2018-07-08T06:45:23.976Z,16.53
2018-07-08T06:50:27.748Z,16.07
2018-07-08T06:55:31.299Z,16.63
2018-07-08T07:00:35.020Z,16.70
2018-07-08T07:05:38.568Z,16.90
2018-07-08T07:10:42.369Z,17.90
2018-07-08T07:15:45.916Z,16.07
2018-07-08T07:20:49.448Z,12.40
2018-07-08T07:25:53.705Z,13.63
2018-07-08T07:30:57.294Z,15.20
2018-07-08T07:36:00.888Z,16.23
2018-07-08T07:41:04.435Z,15.83
2018-07-08T07:46:08.367Z,16.03
2018-07-08T07:51:11.949Z,16.50
2018-07-08T07:56:15.717Z,17.40
2018-07-08T08:01:23.566Z,17.80
2018-07-08T08:06:27.397Z,17.47
2018-07-08T08:11:31.204Z,17.63
2018-07-08T08:16:35.696Z,16.10
2018-07-08T08:21:39.780Z,17.33
2018-07-08T08:26:44.000Z,14.97
2018-07-08T08:31:48.484Z,16.67
2018-07-08T08:36:52.015Z,16.93
2018-07-08T08:41:55.584Z,16.70
2018-07-08T08:46:59.171Z,18.03
2018-07-08T08:52:02.943Z,15.03
2018-07-08T08:57:06.587Z,16.07
2018-07-08T09:02:10.391Z,15.73
2018-07-08T09:07:15.146Z,15.20
2018-07-08T09:12:19.072Z,14.20
2018-07-08T09:17:23.002Z,14.50
2018-07-08T09:22:26.524Z,15.57
2018-07-08T09:27:30.244Z,16.03
2018-07-08T09:32:33.571Z,16.13
2018-07-08T09:37:37.628Z,15.50
2018-07-08T09:42:41.309Z,12.13
2018-07-08T09:47:44.844Z,11.87
2018-07-08T09:52:48.372Z,12.93
2018-07-08T09:57:57.533Z,13.70
2018-07-08T10:03:11.449Z,12.30
2018-07-08T10:08:15.198Z,14.20
2018-07-08T10:13:18.752Z,14.00
2018-07-08T10:18:22.286Z,14.77
2018-07-08T10:23:25.868Z,14.07
2018-07-08T10:28:29.461Z,15.37
2018-07-08T10:34:05.121Z,13.37
2018-07-08T10:39:10.303Z,14.67
2018-07-08T10:49:42.080Z,11.80
2018-07-08T10:54:45.686Z,12.17
2018-07-08T10:59:49.423Z,11.07
2018-07-08T11:04:54.687Z,10.97
2018-07-08T11:09:58.402Z,9.27
2018-07-08T11:15:02.019Z,9.50
2018-07-08T11:20:05.685Z,10.67
2018-07-08T11:25:09.589Z,9.50
2018-07-08T11:30:13.431Z,11.40
2018-07-08T11:35:17.008Z,11.20
2018-07-08T11:40:20.599Z,10.60
2018-07-08T11:45:24.344Z,10.57
2018-07-08T11:50:29.876Z,10.13
2018-07-08T11:55:33.631Z,11.00
2018-07-08T12:00:37.400Z,9.97
2018-07-08T12:05:40.933Z,8.13
2018-07-08T12:10:44.500Z,7.47
2018-07-08T12:15:48.272Z,6.90
2018-07-08T12:20:51.898Z,6.50
2018-07-08T12:25:55.643Z,5.90
2018-07-08T12:30:59.486Z,6.40
2018-07-08T12:36:03.104Z,5.57
2018-07-08T12:41:06.854Z,4.70
2018-07-08T12:46:10.396Z,6.67
2018-07-08T12:51:14.012Z,5.70
2018-07-08T12:56:17.751Z,5.97
2018-07-08T13:01:22.155Z,6.90
2018-07-08T13:06:26.077Z,6.27
2018-07-08T13:11:29.858Z,4.80
2018-07-08T13:16:33.429Z,6.20
2018-07-08T13:21:37.081Z,8.27
2018-07-08T13:26:40.884Z,6.87
2018-07-08T13:31:44.528Z,6.80
2018-07-08T13:36:48.123Z,7.77
2018-07-08T13:41:51.691Z,9.13
2018-07-08T13:46:55.245Z,6.83
2018-07-08T13:51:58.897Z,7.20
2018-07-08T13:57:02.482Z,7.13
2018-07-08T14:02:06.211Z,6.63
2018-07-08T14:07:11.300Z,7.70
2018-07-08T14:12:14.879Z,7.67
2018-07-08T14:17:18.450Z,7.37
2018-07-08T14:22:22.009Z,7.20
2018-07-08T14:27:25.818Z,6.33
2018-07-08T14:32:29.444Z,7.07
2018-07-08T14:37:33.303Z,6.97
2018-07-08T14:42:37.794Z,7.30
2018-07-08T14:47:41.508Z,7.10
2018-07-08T14:52:45.124Z,7.50
2018-07-08T14:57:48.781Z,7.70
2018-07-08T15:02:52.505Z,6.77
2018-07-08T15:07:56.312Z,8.10
2018-07-08T15:13:00.236Z,6.50
2018-07-08T15:18:03.877Z,6.73
2018-07-08T15:23:07.448Z,6.73
2018-07-08T15:28:11.108Z,6.00
2018-07-08T15:33:14.617Z,6.80
2018-07-08T15:38:18.582Z,6.67
2018-07-08T15:43:22.252Z,6.13
2018-07-08T15:48:26.009Z,5.33
2018-07-08T15:53:29.621Z,5.90
2018-07-08T15:58:32.853Z,6.43
2018-07-08T16:03:36.559Z,6.00
2018-07-08T16:08:41.104Z,5.83
2018-07-08T16:13:44.893Z,5.90
2018-07-08T16:18:48.708Z,6.07
2018-07-08T16:23:52.267Z,6.70
2018-07-08T16:28:55.844Z,6.57
2018-07-08T16:34:01.066Z,6.97
2018-07-08T16:39:04.527Z,6.43
2018-07-08T16:44:08.305Z,6.73
2018-07-08T16:49:11.818Z,6.17
2018-07-08T16:54:15.767Z,6.17
2018-07-08T16:59:20.204Z,6.10
2018-07-08T17:04:24.052Z,6.80
2018-07-08T17:09:27.607Z,5.83
2018-07-08T17:14:31.395Z,6.00
2018-07-08T17:19:35.362Z,6.53
2018-07-08T17:24:39.001Z,5.93
2018-07-08T17:29:42.564Z,6.50
2018-07-08T17:34:46.584Z,6.97
2018-07-08T17:39:50.188Z,8.23
2018-07-08T17:44:53.412Z,6.37
2018-07-08T17:49:57.236Z,6.00
2018-07-08T17:55:06.593Z,5.90
2018-07-08T18:00:10.175Z,5.80
2018-07-08T18:05:13.720Z,5.50
2018-07-08T18:10:17.348Z,4.73
2018-07-08T18:15:22.187Z,4.47
2018-07-08T18:20:25.896Z,4.10
2018-07-08T18:25:30.063Z,3.37
2018-07-08T18:30:34.955Z,3.30
2018-07-08T18:35:38.556Z,3.20
2018-07-08T18:40:42.305Z,3.37
2018-07-08T18:45:47.650Z,3.30
2018-07-08T18:50:51.414Z,3.40
2018-07-08T18:55:56.442Z,3.37
2018-07-08T19:01:03.077Z,3.27
2018-07-08T19:06:07.428Z,3.00
2018-07-08T19:11:10.996Z,3.10
2018-07-08T19:16:14.829Z,3.37
2018-07-08T19:21:18.375Z,3.13
2018-07-08T19:26:22.169Z,3.10
2018-07-08T19:31:26.641Z,3.17
2018-07-08T19:36:30.841Z,3.07
2018-07-08T19:41:37.420Z,3.20
2018-07-08T20:03:05.851Z,3.20
2018-07-08T20:08:09.551Z,2.73
2018-07-08T20:13:13.183Z,3.20
2018-07-08T20:18:16.757Z,3.07
2018-07-08T20:23:20.315Z,3.40
2018-07-08T20:28:24.070Z,2.73
2018-07-08T20:33:27.714Z,3.10
2018-07-08T20:38:31.625Z,3.63
2018-07-08T20:43:35.580Z,3.03
2018-07-08T20:48:39.365Z,3.40
2018-07-08T20:53:43.027Z,3.57
2018-07-08T20:58:46.606Z,3.50
2018-07-08T21:03:51.050Z,3.30
2018-07-08T21:08:55.625Z,2.73
2018-07-08T21:13:59.239Z,3.27
2018-07-08T21:19:03.219Z,2.90
2018-07-08T21:24:06.843Z,3.07
2018-07-08T21:29:10.488Z,3.00
2018-07-08T21:34:14.644Z,3.00
2018-07-08T21:39:18.644Z,3.10
2018-07-08T21:44:22.855Z,3.80
2018-07-08T21:49:27.137Z,3.30
2018-07-08T21:54:30.699Z,3.30
2018-07-08T21:59:34.309Z,3.57
2018-07-08T22:04:38.268Z,3.70
2018-07-08T22:09:41.802Z,3.17
2018-07-08T22:14:45.706Z,3.63
2018-07-08T22:19:50.237Z,3.67
2018-07-08T22:24:53.776Z,3.30
2018-07-08T22:29:57.363Z,3.50
2018-07-08T22:35:00.936Z,3.83
2018-07-08T22:40:04.487Z,3.10
2018-07-08T22:45:08.020Z,3.40
2018-07-08T22:50:13.179Z,3.97
2018-07-08T22:55:16.381Z,3.47
2018-07-08T23:00:31.176Z,3.27
2018-07-08T23:05:35.371Z,3.30
2018-07-08T23:10:38.995Z,3.23
2018-07-08T23:15:42.579Z,3.20
2018-07-08T23:20:46.172Z,3.60
2018-07-08T23:25:49.758Z,3.57
2018-07-08T23:30:53.371Z,3.63
2018-07-08T23:35:57.039Z,3.43
2018-07-08T23:41:01.394Z,3.60
2018-07-08T23:46:05.332Z,3.50
2018-07-08T23:51:08.940Z,4.10
2018-07-08T23:56:12.487Z,3.50
